Time;durP1;ratioP1;P1;durP2;ratioP2;P2;SDS_P1;SDS_P2;PMS_P1;PMS_P2;Temp;Humidity;BMP_temperature;BMP_pressure;BME280_temperature;BME280_humidity;BME280_pressure;Samples;Min_cycle;Max_cycle;Signal;HPM_P1;HPM_P2
2023/02/24 00:01:51;;;;;;;3.80;1.00;;;4.80;99.90;;;;;;4959929;28;20473;-69
2023/02/24 00:04:20;;;;;;;3.17;1.10;;;4.80;99.90;;;;;;4961288;28;20469;-69
2023/02/24 00:06:49;;;;;;;2.40;1.03;;;4.80;99.90;;;;;;4961041;28;21007;-69
2023/02/24 00:09:19;;;;;;;2.90;1.10;;;4.80;99.90;;;;;;4975110;28;21050;-69
2023/02/24 00:11:52;;;;;;;3.67;1.23;;;4.70;99.90;;;;;;4960124;28;20508;-69
2023/02/24 00:14:21;;;;;;;4.20;1.43;;;4.80;99.90;;;;;;4967542;28;20473;-69
2023/02/24 00:16:49;;;;;;;3.40;1.40;;;4.80;99.90;;;;;;4960277;28;20504;-68
2023/02/24 00:19:21;;;;;;;8.37;1.77;;;4.70;99.90;;;;;;4966706;28;21263;-68
2023/02/24 00:21:50;;;;;;;5.00;1.23;;;4.80;99.90;;;;;;4964288;28;20465;-68
2023/02/24 00:24:19;;;;;;;3.20;1.00;;;4.80;99.90;;;;;;4963319;28;20482;-67
2023/02/24 00:26:53;;;;;;;5.33;1.17;;;4.80;99.90;;;;;;4956042;28;20497;-68
2023/02/24 00:29:23;;;;;;;2.53;0.90;;;4.70;99.90;;;;;;4960345;28;20504;-68
2023/02/24 00:31:57;;;;;;;3.57;0.97;;;4.80;99.90;;;;;;4962614;28;20493;-68
2023/02/24 00:34:26;;;;;;;3.80;1.60;;;4.70;99.90;;;;;;4962859;28;20563;-69
2023/02/24 00:36:54;;;;;;;3.77;1.20;;;4.80;99.90;;;;;;4965370;28;20492;-69
2023/02/24 00:39:29;;;;;;;3.50;1.40;;;4.80;99.90;;;;;;4952379;28;23159;-69
2023/02/24 00:42:03;;;;;;;4.17;1.43;;;4.80;99.90;;;;;;4958082;28;21220;-69
2023/02/24 00:44:32;;;;;;;3.60;1.30;;;4.80;99.90;;;;;;4956679;28;20484;-69
2023/02/24 00:47:01;;;;;;;4.10;1.13;;;4.80;99.90;;;;;;4959893;28;20499;-68
2023/02/24 00:49:30;;;;;;;2.63;1.33;;;4.80;99.90;;;;;;4962385;28;20510;-68
2023/02/24 00:51:59;;;;;;;2.30;1.03;;;4.80;99.90;;;;;;4977938;28;20500;-69
2023/02/24 00:54:28;;;;;;;2.87;1.90;;;4.70;99.90;;;;;;4980787;28;20479;-69
2023/02/24 00:56:56;;;;;;;4.93;1.77;;;4.80;99.90;;;;;;4972137;28;20491;-69
2023/02/24 00:59:24;;;;;;;5.07;1.53;;;4.80;99.90;;;;;;4958573;28;20497;-69
2023/02/24 01:01:53;;;;;;;4.20;1.77;;;4.80;99.90;;;;;;4959260;28;20552;-69
2023/02/24 01:04:22;;;;;;;5.50;1.80;;;4.70;99.90;;;;;;4965939;28;20515;-69
2023/02/24 01:06:58;;;;;;;4.37;1.33;;;4.70;99.90;;;;;;4964590;28;21167;-69
2023/02/24 01:09:30;;;;;;;4.73;1.50;;;4.70;99.90;;;;;;4967326;28;20495;-69
2023/02/24 01:12:37;;;;;;;10.83;1.37;;;4.70;99.90;;;;;;4970197;28;20580;-69
2023/02/24 01:14:54;;;;;;;5.73;1.60;;;4.70;99.90;;;;;;4963438;28;20547;-69
2023/02/24 01:17:22;;;;;;;6.00;1.43;;;4.70;99.90;;;;;;4963559;28;21131;-69
2023/02/24 01:19:52;;;;;;;4.23;1.43;;;4.70;99.90;;;;;;4987361;28;20508;-69
2023/02/24 01:22:21;;;;;;;3.90;1.70;;;4.70;99.90;;;;;;4969298;28;20469;-69
2023/02/24 01:24:50;;;;;;;4.53;1.60;;;4.80;99.90;;;;;;4963870;28;22248;-69
2023/02/24 01:27:19;;;;;;;5.37;1.30;;;4.70;99.90;;;;;;4974011;28;20492;-68
2023/02/24 01:29:48;;;;;;;3.73;1.43;;;4.70;99.90;;;;;;4983604;28;20488;-69
2023/02/24 01:32:18;;;;;;;5.60;1.60;;;4.70;99.90;;;;;;4973807;28;20493;-69
2023/02/24 01:34:47;;;;;;;7.13;2.70;;;4.70;99.90;;;;;;4975954;28;20469;-69
2023/02/24 01:37:15;;;;;;;4.63;1.50;;;4.70;99.90;;;;;;4982734;28;20500;-70
2023/02/24 01:39:44;;;;;;;2.30;1.33;;;4.70;99.90;;;;;;4962043;28;20504;-69
2023/02/24 01:42:18;;;;;;;8.07;1.47;;;4.70;99.90;;;;;;4971384;28;20936;-69
2023/02/24 01:45:11;;;;;;;7.53;1.30;;;4.70;99.90;;;;;;4977062;28;20477;-69
2023/02/24 01:47:40;;;;;;;4.97;2.53;;;4.70;99.90;;;;;;4971156;28;20493;-69
2023/02/24 01:50:13;;;;;;;6.13;1.57;;;4.70;99.90;;;;;;4964614;28;20493;-69
2023/02/24 01:52:44;;;;;;;5.20;1.27;;;4.70;99.90;;;;;;4959111;28;20654;-68
2023/02/24 01:55:18;;;;;;;7.20;1.70;;;4.70;99.90;;;;;;4964977;28;20476;-69
2023/02/24 01:57:50;;;;;;;2.57;1.30;;;4.70;99.90;;;;;;4963299;28;20945;-69
2023/02/24 02:00:32;;;;;;;7.50;1.80;;;4.70;99.90;;;;;;4959442;28;20608;-69
2023/02/24 02:03:06;;;;;;;4.60;1.47;;;4.70;99.90;;;;;;4965782;28;21003;-69
2023/02/24 02:05:34;;;;;;;4.83;1.23;;;4.70;99.90;;;;;;4961661;28;21167;-68
2023/02/24 02:08:03;;;;;;;3.73;1.77;;;4.70;99.90;;;;;;4984289;28;20480;-69
2023/02/24 02:10:32;;;;;;;3.43;1.60;;;4.70;99.90;;;;;;4972778;28;20492;-69
2023/02/24 02:13:03;;;;;;;6.60;1.23;;;4.70;99.90;;;;;;4965930;28;20979;-68
2023/02/24 02:15:37;;;;;;;5.87;1.47;;;4.70;99.90;;;;;;4967713;28;20465;-69
2023/02/24 02:18:16;;;;;;;5.37;1.30;;;4.70;99.90;;;;;;4951365;28;20520;-69
2023/02/24 02:21:04;;;;;;;2.50;1.10;;;4.70;99.90;;;;;;4963234;28;20501;-69
2023/02/24 02:24:03;;;;;;;4.43;1.50;;;4.70;99.90;;;;;;4961074;28;20481;-68
2023/02/24 02:26:58;;;;;;;2.60;1.30;;;4.70;99.90;;;;;;4963078;28;20496;-69
2023/02/24 02:29:55;;;;;;;5.30;1.40;;;4.70;99.90;;;;;;4968790;28;20505;-69
2023/02/24 02:33:12;;;;;;;3.60;1.10;;;4.70;99.90;;;;;;4959915;28;21620;-70
2023/02/24 02:35:49;;;;;;;2.60;1.10;;;4.70;99.90;;;;;;4886064;29;21241;-69
2023/02/24 02:38:25;;;;;;;5.27;1.70;;;4.70;99.90;;;;;;4960389;28;20473;-69
2023/02/24 02:41:01;;;;;;;5.47;1.70;;;4.70;99.90;;;;;;4961084;28;21100;-69
2023/02/24 02:43:34;;;;;;;3.57;1.43;;;4.70;99.90;;;;;;4963213;28;20478;-69
2023/02/24 02:46:13;;;;;;;6.50;1.50;;;4.60;99.90;;;;;;4952441;28;20948;-69
2023/02/24 02:48:49;;;;;;;4.70;1.30;;;4.60;99.90;;;;;;4983002;28;20473;-69
2023/02/24 02:51:22;;;;;;;2.50;1.13;;;4.60;99.90;;;;;;4962574;28;20503;-69
2023/02/24 02:53:59;;;;;;;5.13;2.63;;;4.60;99.90;;;;;;4959406;28;20481;-69
2023/02/24 02:56:31;;;;;;;2.97;1.40;;;4.60;99.90;;;;;;4960088;28;20489;-68
2023/02/24 02:59:03;;;;;;;4.53;1.60;;;4.60;99.90;;;;;;4958661;28;20614;-69
2023/02/24 03:01:36;;;;;;;4.10;1.23;;;4.60;99.90;;;;;;4961949;28;20500;-69
2023/02/24 03:04:07;;;;;;;4.43;1.70;;;4.60;99.90;;;;;;4958623;28;21264;-69
2023/02/24 03:06:41;;;;;;;5.07;1.60;;;4.60;99.90;;;;;;4961009;28;20490;-69
2023/02/24 03:09:16;;;;;;;4.60;1.40;;;4.50;99.90;;;;;;4958348;28;20480;-69
2023/02/24 03:11:48;;;;;;;6.73;1.53;;;4.50;99.90;;;;;;4966251;28;20473;-68
2023/02/24 03:14:19;;;;;;;4.57;1.50;;;4.60;99.90;;;;;;4957318;28;20602;-69
2023/02/24 03:16:49;;;;;;;4.97;1.40;;;4.60;99.90;;;;;;4960000;28;20489;-69
2023/02/24 03:19:24;;;;;;;5.10;1.60;;;4.60;99.90;;;;;;4959633;28;20473;-69
2023/02/24 03:22:00;;;;;;;4.30;1.33;;;4.50;99.90;;;;;;4964215;28;21764;-69
2023/02/24 03:24:28;;;;;;;2.33;1.53;;;4.50;99.90;;;;;;4962523;28;20477;-69
2023/02/24 03:27:05;;;;;;;1.70;1.03;;;4.60;99.90;;;;;;4960417;28;20498;-69
2023/02/24 03:29:39;;;;;;;4.13;1.40;;;4.60;99.90;;;;;;4962151;28;20500;-69
2023/02/24 03:32:12;;;;;;;3.53;1.20;;;4.60;99.90;;;;;;4960146;28;20477;-69
2023/02/24 03:34:48;;;;;;;4.67;1.33;;;4.60;99.90;;;;;;4961109;28;20480;-69
2023/02/24 03:37:24;;;;;;;4.90;1.60;;;4.50;99.90;;;;;;4959286;28;20493;-69
2023/02/24 03:39:53;;;;;;;3.13;1.20;;;4.50;99.90;;;;;;4964781;28;20500;-69
2023/02/24 03:42:22;;;;;;;5.20;1.50;;;4.50;99.90;;;;;;4958388;28;21128;-69
2023/02/24 03:44:51;;;;;;;4.17;1.23;;;4.50;99.90;;;;;;4959246;28;20480;-69
2023/02/24 03:47:19;;;;;;;1.57;1.20;;;4.50;99.90;;;;;;4963843;28;21009;-69
2023/02/24 03:49:49;;;;;;;5.30;1.40;;;4.50;99.90;;;;;;4958530;28;20505;-69
2023/02/24 03:52:27;;;;;;;3.10;1.40;;;4.50;99.90;;;;;;4960885;28;20838;-69
2023/02/24 03:55:12;;;;;;;3.63;1.27;;;4.50;99.90;;;;;;4958849;28;20488;-69
2023/02/24 03:57:58;;;;;;;2.60;1.03;;;4.50;99.90;;;;;;4956161;28;20501;-69
2023/02/24 04:00:34;;;;;;;5.40;1.57;;;4.50;99.90;;;;;;4956236;28;20496;-69
2023/02/24 04:03:12;;;;;;;3.60;1.60;;;4.50;99.90;;;;;;4960706;28;20561;-69
2023/02/24 04:05:47;;;;;;;2.27;1.00;;;4.50;99.90;;;;;;4953947;28;21712;-69
2023/02/24 04:08:19;;;;;;;3.63;1.40;;;4.40;99.90;;;;;;4959964;28;20473;-69
2023/02/24 04:10:53;;;;;;;3.47;1.20;;;4.50;99.90;;;;;;4952776;28;20699;-69
2023/02/24 04:13:34;;;;;;;4.60;1.30;;;4.50;99.90;;;;;;4967730;28;20491;-69
2023/02/24 04:16:07;;;;;;;2.50;1.17;;;4.50;99.90;;;;;;4964399;28;20484;-69
2023/02/24 04:18:36;;;;;;;3.27;1.37;;;4.40;99.90;;;;;;4966599;28;21058;-69
2023/02/24 04:21:05;;;;;;;3.27;0.93;;;4.50;99.90;;;;;;4974884;28;20879;-69
2023/02/24 04:23:40;;;;;;;2.87;1.37;;;4.40;99.90;;;;;;4969401;28;20468;-69
2023/02/24 04:26:12;;;;;;;4.30;1.00;;;4.40;99.90;;;;;;4962236;28;21008;-69
2023/02/24 04:28:42;;;;;;;3.20;1.50;;;4.30;99.90;;;;;;4962642;28;20480;-69
2023/02/24 04:31:16;;;;;;;4.10;1.50;;;4.40;99.90;;;;;;4963756;28;20504;-69
2023/02/24 04:33:49;;;;;;;2.97;1.40;;;4.40;99.90;;;;;;4965107;28;20496;-69
2023/02/24 04:36:17;;;;;;;5.90;1.50;;;4.40;99.90;;;;;;4968020;28;20503;-69
2023/02/24 04:38:46;;;;;;;4.03;1.97;;;4.40;99.90;;;;;;4968680;28;20851;-69
2023/02/24 04:41:19;;;;;;;4.80;1.60;;;4.30;99.90;;;;;;4967870;28;20512;-69
2023/02/24 04:43:49;;;;;;;10.10;2.10;;;4.40;99.90;;;;;;4966379;28;21291;-69
2023/02/24 04:46:18;;;;;;;3.33;1.23;;;4.40;99.90;;;;;;4963085;28;20493;-69
2023/02/24 04:48:46;;;;;;;4.03;1.50;;;4.40;99.90;;;;;;4968482;28;20508;-69
2023/02/24 04:51:14;;;;;;;4.33;1.30;;;4.30;99.90;;;;;;4965318;28;20500;-69
2023/02/24 04:53:42;;;;;;;4.93;1.37;;;4.30;99.90;;;;;;4968159;28;20493;-69
2023/02/24 04:56:11;;;;;;;3.77;1.40;;;4.30;99.90;;;;;;4966223;28;20492;-69
2023/02/24 04:58:41;;;;;;;3.53;1.30;;;4.30;99.90;;;;;;4966049;28;20480;-69
2023/02/24 05:01:11;;;;;;;3.73;1.57;;;4.30;99.90;;;;;;4970944;28;20497;-69
2023/02/24 05:03:41;;;;;;;5.00;1.40;;;4.30;99.90;;;;;;4965021;28;20469;-69
2023/02/24 05:06:14;;;;;;;2.47;1.20;;;4.30;99.90;;;;;;4968217;28;20489;-70
2023/02/24 05:08:43;;;;;;;4.33;1.40;;;4.30;99.90;;;;;;4987025;28;20488;-69
2023/02/24 05:11:15;;;;;;;3.80;1.33;;;4.30;99.90;;;;;;4963930;28;20520;-69
2023/02/24 05:13:45;;;;;;;3.27;1.50;;;4.30;99.90;;;;;;4961662;28;20525;-70
2023/02/24 05:16:16;;;;;;;1.60;1.40;;;4.20;99.90;;;;;;4967126;28;20881;-69
2023/02/24 05:18:44;;;;;;;4.70;1.60;;;4.20;99.90;;;;;;4961535;28;20484;-70
2023/02/24 05:24:05;;;;;;;2.53;1.40;;;4.20;99.90;;;;;;4961649;28;20790;-69
2023/02/24 05:26:36;;;;;;;6.50;1.50;;;4.20;99.90;;;;;;4964375;28;20957;-69
2023/02/24 05:29:06;;;;;;;4.73;1.30;;;4.20;99.90;;;;;;4951413;28;21714;-70
2023/02/24 05:31:35;;;;;;;1.27;1.00;;;4.20;99.90;;;;;;4970300;28;20608;-70
2023/02/24 05:34:06;;;;;;;3.30;1.40;;;4.20;99.90;;;;;;4955445;28;20536;-70
2023/02/24 05:36:39;;;;;;;2.97;1.40;;;4.20;99.90;;;;;;4955539;28;20493;-70
2023/02/24 05:39:11;;;;;;;4.80;1.30;;;4.20;99.90;;;;;;4961281;28;20494;-69
2023/02/24 05:41:42;;;;;;;5.37;1.97;;;4.30;99.90;;;;;;4966015;28;20995;-70
2023/02/24 05:44:12;;;;;;;3.57;1.43;;;4.30;99.90;;;;;;4966593;28;20479;-70
2023/02/24 05:46:43;;;;;;;3.37;1.40;;;4.30;99.90;;;;;;4954028;28;20504;-69
2023/02/24 05:49:14;;;;;;;6.93;1.50;;;4.20;99.90;;;;;;4959021;28;20584;-70
2023/02/24 05:51:53;;;;;;;4.30;1.53;;;4.30;99.90;;;;;;4964018;28;21496;-69
2023/02/24 05:54:24;;;;;;;5.23;1.20;;;4.30;99.90;;;;;;4962141;28;20505;-70
2023/02/24 05:56:55;;;;;;;6.80;1.60;;;4.30;99.90;;;;;;4959332;28;20489;-69
2023/02/24 05:59:24;;;;;;;3.80;1.63;;;4.20;99.90;;;;;;4968046;28;21101;-70
2023/02/24 06:01:52;;;;;;;3.60;1.53;;;4.30;99.90;;;;;;4961238;28;20481;-70
2023/02/24 06:04:26;;;;;;;6.23;1.97;;;4.30;99.90;;;;;;4960927;28;20940;-69
2023/02/24 06:06:54;;;;;;;3.00;1.80;;;4.30;99.90;;;;;;4964733;28;20505;-69
2023/02/24 06:09:22;;;;;;;3.83;1.50;;;4.30;99.90;;;;;;4963847;28;20630;-70
2023/02/24 06:11:50;;;;;;;3.30;1.67;;;4.30;99.90;;;;;;4955724;28;21015;-69
2023/02/24 06:14:21;;;;;;;4.03;1.87;;;4.30;99.90;;;;;;4958922;28;20496;-69
2023/02/24 06:16:49;;;;;;;5.23;1.57;;;4.20;99.90;;;;;;4964573;28;20928;-68
2023/02/24 06:19:19;;;;;;;4.50;1.70;;;4.30;99.90;;;;;;4977368;28;20477;-71
2023/02/24 06:21:47;;;;;;;3.60;2.00;;;4.20;99.90;;;;;;4976942;28;20476;-69
2023/02/24 06:24:17;;;;;;;3.97;1.87;;;4.20;99.90;;;;;;4963653;28;20473;-69
2023/02/24 06:26:46;;;;;;;3.73;2.13;;;4.20;99.90;;;;;;4963527;28;20489;-69
2023/02/24 06:29:15;;;;;;;3.00;1.63;;;4.20;99.90;;;;;;4960060;28;21008;-70
2023/02/24 06:31:47;;;;;;;4.70;1.70;;;4.10;99.90;;;;;;4964412;28;20481;-70
2023/02/24 06:34:17;;;;;;;3.53;1.93;;;4.10;99.90;;;;;;4961709;28;20580;-70
2023/02/24 06:36:45;;;;;;;3.67;2.10;;;4.00;99.90;;;;;;4964781;28;20504;-70
2023/02/24 06:39:13;;;;;;;19.07;2.63;;;4.10;99.90;;;;;;4979563;28;20476;-70
2023/02/24 06:41:42;;;;;;;2.50;1.53;;;4.00;99.90;;;;;;4986075;28;20475;-69
2023/02/24 06:44:10;;;;;;;3.60;1.80;;;4.00;99.90;;;;;;4959495;28;20492;-70
2023/02/24 06:46:38;;;;;;;2.90;1.63;;;4.00;99.90;;;;;;4957189;28;20504;-69
2023/02/24 06:49:08;;;;;;;2.87;1.73;;;3.90;99.90;;;;;;4963297;28;20500;-70
2023/02/24 06:51:36;;;;;;;5.23;2.10;;;3.80;99.90;;;;;;4975465;28;20469;-69
2023/02/24 06:54:05;;;;;;;4.67;2.23;;;3.80;99.90;;;;;;4987988;28;20493;-69
2023/02/24 06:56:37;;;;;;;1.83;1.73;;;3.80;99.90;;;;;;4975721;28;20497;-68
2023/02/24 06:59:10;;;;;;;3.30;2.60;;;3.80;99.90;;;;;;4963177;28;20484;-69
2023/02/24 07:01:43;;;;;;;4.10;2.10;;;3.70;99.90;;;;;;4975739;28;20477;-70
2023/02/24 07:04:19;;;;;;;3.97;2.40;;;3.70;99.90;;;;;;4960651;28;20961;-69
2023/02/24 07:06:51;;;;;;;7.10;2.30;;;3.70;99.90;;;;;;4959410;28;20493;-69
2023/02/24 07:09:21;;;;;;;1.73;1.60;;;3.70;99.90;;;;;;4968526;28;20524;-69
2023/02/24 07:11:51;;;;;;;3.93;2.40;;;3.70;99.90;;;;;;4968747;28;20528;-70
2023/02/24 07:14:21;;;;;;;5.07;1.90;;;3.70;99.90;;;;;;4965945;28;21805;-68
2023/02/24 07:16:52;;;;;;;2.83;2.10;;;3.70;99.90;;;;;;4959095;28;20492;-69
2023/02/24 07:19:24;;;;;;;4.33;2.37;;;3.60;99.90;;;;;;4961331;28;20575;-69
2023/02/24 07:21:58;;;;;;;4.13;2.10;;;3.60;99.90;;;;;;4969639;28;20473;-69
2023/02/24 07:24:34;;;;;;;2.90;2.57;;;3.60;99.90;;;;;;4980863;28;20555;-68
2023/02/24 07:27:04;;;;;;;3.20;2.57;;;3.60;99.90;;;;;;4978164;28;20488;-68
2023/02/24 07:29:33;;;;;;;5.33;2.60;;;3.50;99.90;;;;;;4962375;28;21017;-68
2023/02/24 07:32:04;;;;;;;4.77;2.30;;;3.50;99.90;;;;;;4964801;28;20853;-69
2023/02/24 07:34:38;;;;;;;4.13;2.70;;;3.50;99.90;;;;;;4962304;28;20492;-69
2023/02/24 07:37:06;;;;;;;6.20;2.43;;;3.60;99.90;;;;;;4980108;28;20572;-68
2023/02/24 07:39:36;;;;;;;2.97;2.30;;;3.50;99.90;;;;;;4963715;28;20575;-69
2023/02/24 07:42:05;;;;;;;7.40;3.10;;;3.50;99.90;;;;;;4968231;28;20477;-69
2023/02/24 07:44:33;;;;;;;5.60;2.53;;;3.50;99.90;;;;;;4971100;28;20473;-70
2023/02/24 07:47:06;;;;;;;5.17;2.40;;;3.50;99.90;;;;;;4960822;28;20508;-69
2023/02/24 07:49:37;;;;;;;4.67;2.60;;;3.50;99.90;;;;;;4960277;28;20632;-69
2023/02/24 07:52:06;;;;;;;3.77;2.37;;;3.50;99.90;;;;;;4973922;28;20481;-69
2023/02/24 07:54:35;;;;;;;4.80;2.13;;;3.50;99.90;;;;;;4976956;28;21082;-69
2023/02/24 07:57:05;;;;;;;4.00;2.60;;;3.50;99.90;;;;;;4960965;28;20493;-69
2023/02/24 07:59:36;;;;;;;5.47;2.10;;;3.50;99.90;;;;;;4964451;28;20496;-69
2023/02/24 08:02:06;;;;;;;3.67;2.43;;;3.50;99.90;;;;;;4960869;28;20559;-70
2023/02/24 08:04:39;;;;;;;5.53;2.50;;;3.40;99.90;;;;;;4955289;28;21066;-69
2023/02/24 08:07:13;;;;;;;3.07;2.53;;;3.40;99.90;;;;;;4986003;28;20512;-69
2023/02/24 08:10:08;;;;;;;3.10;2.60;;;3.40;99.90;;;;;;4970003;28;21548;-69
2023/02/24 08:12:41;;;;;;;3.40;2.40;;;3.40;99.90;;;;;;4961753;28;20622;-69
2023/02/24 08:15:16;;;;;;;4.30;2.57;;;3.40;99.90;;;;;;4968776;28;20492;-69
2023/02/24 08:17:46;;;;;;;5.20;2.43;;;3.40;99.90;;;;;;4963526;28;20864;-69
2023/02/24 08:20:21;;;;;;;5.83;3.30;;;3.40;99.90;;;;;;4972687;28;20501;-68
2023/02/24 08:22:51;;;;;;;4.30;2.33;;;3.40;99.90;;;;;;4961275;28;20921;-68
2023/02/24 08:25:23;;;;;;;2.50;2.30;;;3.40;99.90;;;;;;4971885;28;20942;-68
2023/02/24 08:27:56;;;;;;;2.83;2.33;;;3.40;99.90;;;;;;4961079;28;20496;-69
2023/02/24 08:30:43;;;;;;;3.50;2.40;;;3.40;99.90;;;;;;4961103;28;20501;-69
2023/02/24 08:33:17;;;;;;;3.40;2.13;;;3.40;99.90;;;;;;4969524;28;20475;-68
2023/02/24 08:35:51;;;;;;;3.10;2.17;;;3.40;99.90;;;;;;4984092;28;20571;-69
2023/02/24 08:38:22;;;;;;;2.27;2.07;;;3.40;99.90;;;;;;4967973;28;20555;-68
2023/02/24 08:40:56;;;;;;;2.80;2.20;;;3.40;99.90;;;;;;4961765;28;20501;-69
2023/02/24 08:43:33;;;;;;;5.93;2.70;;;3.40;99.90;;;;;;4969302;28;21021;-69
2023/02/24 08:46:09;;;;;;;3.40;3.10;;;3.40;99.90;;;;;;4978037;28;20473;-68
2023/02/24 08:48:41;;;;;;;4.63;4.13;;;3.40;99.90;;;;;;4986881;28;20485;-68
2023/02/24 08:51:13;;;;;;;4.00;3.70;;;3.40;99.90;;;;;;4978532;28;20608;-70
2023/02/24 08:53:42;;;;;;;5.20;4.57;;;3.40;99.90;;;;;;4962772;28;21467;-69
2023/02/24 08:56:13;;;;;;;6.33;5.70;;;3.40;99.90;;;;;;4962203;28;20499;-69
2023/02/24 08:58:45;;;;;;;6.57;5.90;;;3.50;99.90;;;;;;4957925;28;20473;-69
2023/02/24 09:01:22;;;;;;;6.67;6.00;;;3.40;99.90;;;;;;4960863;28;20883;-69
2023/02/24 09:03:54;;;;;;;6.87;6.20;;;3.40;99.90;;;;;;4983631;28;21042;-68
2023/02/24 09:06:26;;;;;;;6.77;6.07;;;3.50;99.90;;;;;;4962201;28;20492;-69
2023/02/24 09:11:42;;;;;;;6.37;5.77;;;3.50;99.90;;;;;;4958344;28;20477;-69
2023/02/24 09:14:15;;;;;;;6.53;5.90;;;3.50;99.90;;;;;;4964384;28;20821;-69
2023/02/24 09:17:04;;;;;;;5.27;4.77;;;3.50;99.90;;;;;;4967419;28;20493;-69
2023/02/24 09:20:14;;;;;;;4.97;4.47;;;3.50;99.90;;;;;;4967564;28;20512;-69
2023/02/24 09:22:30;;;;;;;5.63;5.00;;;3.50;99.90;;;;;;4965831;28;20528;-69
2023/02/24 09:27:54;;;;;;;7.40;5.23;;;3.50;99.90;;;;;;4962595;28;20492;-68
2023/02/24 09:30:34;;;;;;;5.43;4.93;;;3.50;99.90;;;;;;4971626;28;20547;-69
2023/02/24 09:33:20;;;;;;;6.77;5.07;;;3.50;99.90;;;;;;4961079;28;20484;-69
2023/02/24 09:36:01;;;;;;;6.70;4.70;;;3.50;99.90;;;;;;4966761;28;20489;-70
2023/02/24 09:39:08;;;;;;;6.33;4.63;;;3.50;99.90;;;;;;4964290;28;20995;-69
2023/02/24 09:44:32;;;;;;;9.10;4.97;;;3.60;99.90;;;;;;4951434;28;20474;-68
2023/02/24 09:47:09;;;;;;;5.07;4.30;;;3.60;99.90;;;;;;4941855;28;20494;-69
2023/02/24 09:49:46;;;;;;;6.13;4.00;;;3.60;99.90;;;;;;4946242;28;20505;-69
2023/02/24 09:52:17;;;;;;;5.87;4.80;;;3.50;99.90;;;;;;4942090;28;20481;-69
2023/02/24 09:58:03;;;;;;;4.40;4.00;;;3.60;99.90;;;;;;4944742;28;20496;-68
2023/02/24 10:00:33;;;;;;;5.00;4.50;;;3.60;99.90;;;;;;4964290;28;20493;-70
2023/02/24 10:03:18;;;;;;;7.13;4.87;;;3.70;99.90;;;;;;4951001;28;20474;-68
2023/02/24 10:05:57;;;;;;;4.33;3.93;;;3.70;99.90;;;;;;4946675;28;20469;-68
2023/02/24 10:08:33;;;;;;;5.17;4.33;;;3.70;99.90;;;;;;4948510;28;20540;-69
2023/02/24 10:11:09;;;;;;;4.73;4.30;;;3.70;99.90;;;;;;4938135;28;20499;-68
2023/02/24 10:13:42;;;;;;;4.27;3.87;;;3.80;99.90;;;;;;4949037;28;20754;-69
2023/02/24 10:16:22;;;;;;;4.97;3.50;;;3.80;99.90;;;;;;4947783;28;20490;-69
2023/02/24 10:18:59;;;;;;;4.43;4.03;;;3.80;99.90;;;;;;4946932;28;20474;-70
2023/02/24 10:21:47;;;;;;;5.13;4.50;;;3.80;99.90;;;;;;4940519;28;20481;-69
2023/02/24 10:24:22;;;;;;;4.53;4.10;;;3.80;99.90;;;;;;4943446;28;20482;-68
2023/02/24 10:26:57;;;;;;;4.40;3.80;;;3.80;99.90;;;;;;4949436;28;21083;-69
2023/02/24 10:29:49;;;;;;;4.70;3.87;;;3.90;99.90;;;;;;4937918;28;20606;-69
2023/02/24 10:32:22;;;;;;;4.17;3.83;;;3.90;99.90;;;;;;4944615;28;20471;-69
2023/02/24 10:34:51;;;;;;;4.67;3.70;;;3.90;99.90;;;;;;4953153;28;20513;-68
2023/02/24 10:37:21;;;;;;;3.73;3.43;;;4.00;99.90;;;;;;4965608;28;20501;-69
2023/02/24 10:39:57;;;;;;;3.90;3.43;;;4.00;99.90;;;;;;4954048;28;20504;-68
2023/02/24 10:42:30;;;;;;;4.47;3.77;;;4.00;99.90;;;;;;4971802;28;20504;-70
2023/02/24 10:45:15;;;;;;;3.73;3.43;;;4.00;99.90;;;;;;4960946;28;20547;-69
2023/02/24 10:47:55;;;;;;;3.00;2.80;;;4.00;99.90;;;;;;4969229;28;20497;-69
2023/02/24 10:50:26;;;;;;;2.90;2.60;;;4.00;99.90;;;;;;4963492;28;20563;-70
2023/02/24 10:53:33;;;;;;;3.20;2.90;;;4.00;99.90;;;;;;4960552;28;20813;-68
2023/02/24 10:56:26;;;;;;;3.33;3.00;;;4.10;99.90;;;;;;4981983;28;20487;-68
2023/02/24 11:01:53;;;;;;;4.10;2.77;;;4.10;99.90;;;;;;4966417;28;20856;-69
2023/02/24 11:07:11;;;;;;;3.27;2.97;;;4.10;99.90;;;;;;4950487;28;20492;-69
2023/02/24 11:09:51;;;;;;;3.23;2.80;;;4.10;99.90;;;;;;4962037;28;21731;-69
2023/02/24 11:18:07;;;;;;;3.90;3.53;;;4.30;99.90;;;;;;4958696;28;21290;-69
2023/02/24 11:20:37;;;;;;;4.17;3.37;;;4.40;99.90;;;;;;4963474;28;20508;-70
2023/02/24 11:23:19;;;;;;;4.00;3.70;;;4.40;99.90;;;;;;4982655;28;20477;-69
2023/02/24 11:25:49;;;;;;;3.43;3.13;;;4.40;99.90;;;;;;4976925;28;20996;-71
2023/02/24 11:28:31;;;;;;;6.07;4.50;;;4.50;99.90;;;;;;4963820;28;20961;-69
2023/02/24 11:31:12;;;;;;;4.73;4.27;;;4.50;99.90;;;;;;4963517;28;20531;-70
2023/02/24 11:33:46;;;;;;;4.90;3.50;;;4.50;99.90;;;;;;4960385;28;21537;-71
2023/02/24 11:36:24;;;;;;;4.40;4.00;;;4.50;99.90;;;;;;4966559;28;20489;-70
2023/02/24 11:39:02;;;;;;;4.10;3.70;;;4.50;99.90;;;;;;4962788;28;20473;-70
2023/02/24 11:41:51;;;;;;;4.30;3.90;;;4.60;99.90;;;;;;4965888;28;20517;-70
2023/02/24 11:44:27;;;;;;;4.87;4.03;;;4.60;99.90;;;;;;4963073;28;20474;-70
2023/02/24 11:47:00;;;;;;;5.93;4.20;;;4.70;99.90;;;;;;4959882;28;20484;-71
2023/02/24 11:49:35;;;;;;;4.57;4.17;;;4.70;99.90;;;;;;4956200;28;20493;-69
2023/02/24 11:52:06;;;;;;;6.83;4.00;;;4.70;99.90;;;;;;4978534;28;20499;-70
2023/02/24 11:54:38;;;;;;;5.90;4.13;;;4.80;99.90;;;;;;4965090;28;20482;-69
2023/02/24 11:57:14;;;;;;;5.97;4.60;;;4.80;99.90;;;;;;4957047;28;20600;-71
2023/02/24 11:59:46;;;;;;;4.80;4.40;;;4.80;99.90;;;;;;4962905;28;20813;-71
2023/02/24 12:02:22;;;;;;;5.03;4.63;;;4.80;99.90;;;;;;4962487;28;21414;-70
2023/02/24 12:04:58;;;;;;;4.60;4.20;;;4.90;99.90;;;;;;4974576;28;21336;-70
2023/02/24 12:07:32;;;;;;;6.43;4.60;;;4.90;99.90;;;;;;4963958;28;21040;-70
2023/02/24 12:10:08;;;;;;;5.53;4.63;;;4.90;99.90;;;;;;4962677;28;20497;-71
2023/02/24 12:12:48;;;;;;;6.03;4.70;;;4.90;99.90;;;;;;4962000;28;20492;-69
2023/02/24 12:15:23;;;;;;;6.50;4.37;;;5.00;99.90;;;;;;4960489;28;21003;-70
2023/02/24 12:18:00;;;;;;;7.10;5.50;;;5.00;99.90;;;;;;4968923;28;20502;-69
2023/02/24 12:20:33;;;;;;;6.00;4.77;;;5.20;99.90;;;;;;4964422;28;21167;-71
2023/02/24 12:23:09;;;;;;;6.03;5.43;;;5.40;99.90;;;;;;4975997;28;20477;-70
2023/02/24 12:25:52;;;;;;;5.27;4.63;;;5.40;99.90;;;;;;4960276;28;20897;-70
2023/02/24 12:28:32;;;;;;;4.87;4.37;;;5.50;99.90;;;;;;4968543;28;20847;-71
2023/02/24 12:31:11;;;;;;;4.80;4.37;;;5.60;99.90;;;;;;4963207;28;20870;-70
2023/02/24 12:33:50;;;;;;;8.07;5.57;;;5.60;99.90;;;;;;4971732;28;20488;-73
2023/02/24 12:36:36;;;;;;;5.37;4.87;;;5.50;99.90;;;;;;4958892;28;20496;-71
2023/02/24 12:39:12;;;;;;;5.57;5.07;;;5.50;99.90;;;;;;4961737;28;20473;-71
2023/02/24 12:41:52;;;;;;;5.40;4.90;;;5.40;99.90;;;;;;4978040;28;20476;-71
2023/02/24 12:44:31;;;;;;;6.40;5.40;;;5.50;99.90;;;;;;4959310;28;20492;-71
2023/02/24 12:47:05;;;;;;;7.93;5.80;;;5.40;99.90;;;;;;4980181;28;20468;-71
2023/02/24 12:49:51;;;;;;;6.10;5.50;;;5.50;99.90;;;;;;4985570;28;20508;-71
2023/02/24 12:52:27;;;;;;;7.60;5.83;;;5.60;99.90;;;;;;4960333;28;22232;-71
2023/02/24 12:54:59;;;;;;;8.47;6.53;;;5.70;99.90;;;;;;4963973;28;20830;-71
2023/02/24 12:57:35;;;;;;;7.00;6.30;;;6.10;99.90;;;;;;4959378;28;20505;-71
2023/02/24 13:00:11;;;;;;;7.60;6.20;;;6.40;99.90;;;;;;4977615;28;20508;-71
2023/02/24 13:02:50;;;;;;;9.53;5.93;;;6.40;99.90;;;;;;4953363;28;20475;-71
2023/02/24 13:05:24;;;;;;;7.70;6.10;;;6.40;99.90;;;;;;4959959;28;20501;-69
2023/02/24 13:08:09;;;;;;;7.33;5.60;;;6.90;99.90;;;;;;4958252;28;20476;-69
2023/02/24 13:10:43;;;;;;;8.80;6.17;;;7.60;99.90;;;;;;4968626;28;20497;-71
2023/02/24 13:13:20;;;;;;;7.33;5.60;;;7.80;99.90;;;;;;4964400;28;22313;-68
2023/02/24 13:15:53;;;;;;;9.43;6.67;;;7.70;99.90;;;;;;4976784;28;20526;-70
2023/02/24 13:18:26;;;;;;;6.80;5.93;;;7.60;99.90;;;;;;4964917;28;20509;-69
2023/02/24 13:21:18;;;;;;;7.40;5.70;;;8.00;99.90;;;;;;4961417;28;20489;-70
2023/02/24 13:23:54;;;;;;;9.30;5.80;;;8.50;99.90;;;;;;4960352;28;20475;-69
2023/02/24 13:26:26;;;;;;;6.90;5.23;;;8.30;99.90;;;;;;4963509;28;20488;-70
2023/02/24 13:29:00;;;;;;;8.57;4.80;;;8.00;99.90;;;;;;4970882;28;20980;-70
2023/02/24 13:31:41;;;;;;;7.37;5.13;;;7.80;99.90;;;;;;4953431;28;21041;-70
2023/02/24 13:34:14;;;;;;;5.53;4.43;;;7.40;99.90;;;;;;4956373;28;20472;-69
2023/02/24 13:36:50;;;;;;;7.63;5.07;;;7.30;99.90;;;;;;4956240;28;20504;-69
2023/02/24 13:39:25;;;;;;;7.03;4.77;;;7.00;99.90;;;;;;4964758;28;20527;-69
2023/02/24 13:42:04;;;;;;;7.10;4.57;;;6.80;99.90;;;;;;4968407;28;20979;-77
2023/02/24 13:44:33;;;;;;;6.30;4.00;;;6.70;99.90;;;;;;4958991;28;20497;-72
2023/02/24 13:47:24;;;;;;;6.53;3.70;;;6.60;99.90;;;;;;4955028;28;20502;-72
2023/02/24 13:50:05;;;;;;;9.00;4.50;;;6.50;99.90;;;;;;4959930;28;20496;-72
2023/02/24 13:52:47;;;;;;;8.93;3.80;;;6.50;99.90;;;;;;4962236;28;22108;-71
2023/02/24 13:55:29;;;;;;;5.73;2.80;;;6.50;99.90;;;;;;4953942;28;21012;-72
2023/02/24 13:58:09;;;;;;;6.50;2.90;;;6.50;99.90;;;;;;4949102;28;20496;-72
2023/02/24 14:00:53;;;;;;;6.23;2.93;;;6.50;99.90;;;;;;4955331;28;20489;-70